createdAt,value
2023-05-10T00:00:24.709Z,11.10
2023-05-10T00:04:44.400Z,13.95
2023-05-10T00:08:46.581Z,14.93
2023-05-10T00:12:48.731Z,14.25
2023-05-10T00:16:51.002Z,13.52
2023-05-10T00:20:53.246Z,12.40
2023-05-10T00:24:55.482Z,11.27
2023-05-10T00:28:58.007Z,13.43
2023-05-10T00:33:00.201Z,12.77
2023-05-10T00:37:02.604Z,16.60
2023-05-10T00:41:05.057Z,11.00
2023-05-10T00:45:09.902Z,16.60
2023-05-10T00:49:12.532Z,17.83
2023-05-10T00:53:16.103Z,13.50
2023-05-10T00:57:19.266Z,16.05
2023-05-10T01:01:21.603Z,16.58
2023-05-10T01:05:24.021Z,12.30
2023-05-10T01:09:27.419Z,12.30
2023-05-10T01:13:38.340Z,10.60
2023-05-10T01:17:43.769Z,10.18
2023-05-10T01:22:16.696Z,13.88
2023-05-10T01:26:41.090Z,12.30
2023-05-10T01:31:25.367Z,11.65
2023-05-10T01:35:48.875Z,12.43
2023-05-10T01:39:58.905Z,12.63
2023-05-10T01:44:10.824Z,12.95
2023-05-10T01:48:15.443Z,14.93
2023-05-10T01:52:20.846Z,11.23
2023-05-10T01:56:27.174Z,16.77
2023-05-10T02:00:31.206Z,19.05
2023-05-10T02:04:36.388Z,13.20
2023-05-10T02:08:41.122Z,12.10
2023-05-10T02:12:47.099Z,13.65
2023-05-10T02:16:52.142Z,16.38
2023-05-10T02:20:56.420Z,12.77
2023-05-10T02:25:00.725Z,12.30
2023-05-10T02:29:06.630Z,11.93
2023-05-10T02:33:09.679Z,12.13
2023-05-10T02:37:14.188Z,13.80
2023-05-10T02:41:16.919Z,12.88
2023-05-10T02:45:24.631Z,11.32
2023-05-10T02:49:26.822Z,13.20
2023-05-10T02:53:34.257Z,10.57
2023-05-10T02:57:41.783Z,9.98
2023-05-10T03:01:43.898Z,15.70
2023-05-10T03:05:46.109Z,12.07
2023-05-10T03:09:49.855Z,12.70
2023-05-10T03:14:22.436Z,10.43
2023-05-10T03:18:33.444Z,14.95
2023-05-10T03:22:50.778Z,16.70
2023-05-10T03:26:56.542Z,18.48
2023-05-10T03:31:00.722Z,11.50
2023-05-10T03:35:08.613Z,9.55
2023-05-10T03:39:11.601Z,11.52
2023-05-10T03:43:14.401Z,14.38
2023-05-10T03:47:16.445Z,10.80
2023-05-10T03:51:18.300Z,11.43
2023-05-10T03:55:20.516Z,14.18
2023-05-10T03:59:22.554Z,14.70
2023-05-10T04:03:26.746Z,16.60
2023-05-10T04:07:29.056Z,18.05
2023-05-10T04:11:31.706Z,12.63
2023-05-10T04:15:33.837Z,10.68
2023-05-10T04:19:36.280Z,15.27
2023-05-10T04:23:38.537Z,10.63
2023-05-10T04:27:40.540Z,12.85
2023-05-10T04:31:42.563Z,10.82
2023-05-10T04:35:45.632Z,10.88
2023-05-10T04:39:47.939Z,9.30
2023-05-10T04:43:50.456Z,8.82
2023-05-10T04:47:52.517Z,11.40
2023-05-10T04:51:54.575Z,11.95
2023-05-10T04:55:56.895Z,13.13
2023-05-10T04:59:59.311Z,12.60
2023-05-10T05:04:01.604Z,10.88
2023-05-10T05:08:04.258Z,9.25
2023-05-10T05:12:06.697Z,16.20
2023-05-10T05:16:08.709Z,11.27
2023-05-10T05:20:11.753Z,13.00
2023-05-10T05:24:13.834Z,14.10
2023-05-10T05:28:15.833Z,6.55
2023-05-10T05:32:18.327Z,13.05
2023-05-10T05:36:21.377Z,13.38
2023-05-10T05:40:23.446Z,12.05
2023-05-10T05:44:25.713Z,8.02
2023-05-10T05:48:27.669Z,9.85
2023-05-10T05:52:29.676Z,17.17
2023-05-10T05:56:31.722Z,10.02
2023-05-10T06:04:36.056Z,9.63
2023-05-10T06:08:38.436Z,18.08
2023-05-10T06:12:40.390Z,9.93
2023-05-10T06:16:42.476Z,8.18
2023-05-10T06:20:44.583Z,9.00
2023-05-10T06:24:46.588Z,8.50
2023-05-10T06:28:48.679Z,10.10
2023-05-10T06:32:51.139Z,9.40
2023-05-10T06:36:53.238Z,10.15
2023-05-10T06:40:55.310Z,7.85
2023-05-10T06:44:57.416Z,10.68
2023-05-10T06:48:59.669Z,5.45
2023-05-10T06:53:02.830Z,9.63
2023-05-10T06:57:10.776Z,9.25
2023-05-10T07:01:18.549Z,7.47
2023-05-10T07:05:21.440Z,9.55
2023-05-10T07:09:25.460Z,5.53
2023-05-10T07:13:27.643Z,4.78
2023-05-10T07:17:29.752Z,9.77
2023-05-10T07:21:32.293Z,5.70
2023-05-10T07:25:34.324Z,6.13
2023-05-10T07:29:37.182Z,5.85
2023-05-10T07:33:39.355Z,7.80
2023-05-10T07:37:41.076Z,8.02
2023-05-10T07:41:43.163Z,6.53
2023-05-10T07:45:45.265Z,5.80
2023-05-10T07:49:47.331Z,6.85
2023-05-10T07:53:49.345Z,11.07
2023-05-10T07:57:51.395Z,7.15
2023-05-10T08:01:53.508Z,9.15
2023-05-10T08:05:55.663Z,7.38
2023-05-10T08:09:57.732Z,4.93
2023-05-10T08:13:59.960Z,6.55
2023-05-10T08:18:02.068Z,4.90
2023-05-10T08:22:04.218Z,6.97
2023-05-10T08:26:06.759Z,10.20
2023-05-10T08:30:09.569Z,5.20
2023-05-10T08:34:11.716Z,5.75
2023-05-10T08:38:13.894Z,8.90
2023-05-10T08:42:20.082Z,6.15
2023-05-10T08:46:23.994Z,5.68
2023-05-10T08:50:26.701Z,6.72
2023-05-10T08:54:28.935Z,7.35
2023-05-10T08:58:31.858Z,6.07
2023-05-10T09:02:34.148Z,4.65
2023-05-10T09:06:37.398Z,6.07
2023-05-10T09:10:40.860Z,6.68
2023-05-10T09:14:45.695Z,10.70
2023-05-10T09:18:47.924Z,6.80
2023-05-10T09:22:50.639Z,6.22
2023-05-10T09:26:52.733Z,8.40
2023-05-10T09:30:56.561Z,5.22
2023-05-10T09:35:07.627Z,12.93
2023-05-10T09:39:09.657Z,5.97
2023-05-10T09:43:11.792Z,10.88
2023-05-10T09:47:19.126Z,4.35
2023-05-10T09:51:21.678Z,3.53
2023-05-10T09:55:25.780Z,4.70
2023-05-10T09:59:29.302Z,7.15
2023-05-10T10:03:31.646Z,4.50
2023-05-10T10:07:34.469Z,5.22
2023-05-10T10:11:37.758Z,7.68
2023-05-10T10:15:40.546Z,4.68
2023-05-10T10:19:42.613Z,4.72
2023-05-10T10:23:45.152Z,4.22
2023-05-10T10:27:52.965Z,8.13
2023-05-10T10:32:12.614Z,7.37
2023-05-10T10:40:34.453Z,6.55
2023-05-10T10:44:39.017Z,5.50
2023-05-10T10:49:10.989Z,5.55
2023-05-10T10:53:14.036Z,4.63
2023-05-10T10:57:16.413Z,11.45
2023-05-10T11:01:19.705Z,6.30
2023-05-10T11:05:24.854Z,4.18
2023-05-10T11:09:40.518Z,6.43
2023-05-10T11:13:44.802Z,8.02
2023-05-10T11:17:53.037Z,7.60
2023-05-10T11:22:04.189Z,10.30
2023-05-10T11:26:10.571Z,8.88
2023-05-10T11:30:13.438Z,13.40
2023-05-10T11:34:25.373Z,5.65
2023-05-10T11:38:27.344Z,13.30
2023-05-10T11:42:29.428Z,10.50
2023-05-10T11:46:31.606Z,8.20
2023-05-10T11:50:33.848Z,14.55
2023-05-10T11:54:36.208Z,4.70
2023-05-10T11:58:40.496Z,8.73
2023-05-10T12:02:42.917Z,9.45
2023-05-10T12:06:46.034Z,8.15
2023-05-10T12:10:48.348Z,10.57
2023-05-10T12:14:51.886Z,9.10
2023-05-10T12:18:57.296Z,8.95
2023-05-10T12:23:00.772Z,6.75
2023-05-10T12:27:08.329Z,14.10
2023-05-10T12:31:10.546Z,7.93
2023-05-10T12:35:12.591Z,6.20
2023-05-10T12:39:14.674Z,4.15
2023-05-10T12:43:16.672Z,8.85
2023-05-10T12:47:18.643Z,3.83
2023-05-10T12:51:22.956Z,8.40
2023-05-10T12:55:24.990Z,7.13
2023-05-10T12:59:26.995Z,11.70
2023-05-10T13:03:29.055Z,8.70
2023-05-10T13:07:31.118Z,6.95
2023-05-10T13:11:33.611Z,4.50
2023-05-10T13:15:36.038Z,7.80
2023-05-10T13:19:38.203Z,7.10
2023-05-10T13:23:40.358Z,6.68
2023-05-10T13:27:42.549Z,4.28
2023-05-10T13:31:44.821Z,6.28
2023-05-10T13:35:46.919Z,8.38
2023-05-10T13:39:49.301Z,7.57
2023-05-10T13:43:51.360Z,6.78
2023-05-10T13:47:53.423Z,10.52
2023-05-10T13:51:55.458Z,7.68
2023-05-10T13:56:36.289Z,6.97
2023-05-10T14:00:38.729Z,6.97
2023-05-10T14:04:40.910Z,7.20
2023-05-10T14:08:43.469Z,3.22
2023-05-10T14:12:46.060Z,7.35
2023-05-10T14:16:48.800Z,3.58
2023-05-10T14:20:51.310Z,7.38
2023-05-10T14:24:53.468Z,5.22
2023-05-10T14:28:55.676Z,5.75
2023-05-10T14:32:59.571Z,6.43
2023-05-10T14:37:02.176Z,11.68
2023-05-10T14:41:04.341Z,9.95
2023-05-10T14:45:06.763Z,5.18
2023-05-10T14:49:08.916Z,7.32
2023-05-10T14:53:53.732Z,4.60
2023-05-10T14:57:56.063Z,4.45
2023-05-10T15:01:58.889Z,4.05
2023-05-10T15:06:01.955Z,6.68
2023-05-10T15:10:04.996Z,7.05
2023-05-10T15:14:07.486Z,6.05
2023-05-10T15:18:10.980Z,3.65
2023-05-10T15:22:13.083Z,8.07
2023-05-10T15:26:15.101Z,11.57
2023-05-10T15:30:17.257Z,5.43
2023-05-10T15:34:19.776Z,5.05
2023-05-10T15:38:21.919Z,6.32
2023-05-10T15:42:23.943Z,5.22
2023-05-10T15:46:26.277Z,4.10
2023-05-10T15:50:28.689Z,9.48
2023-05-10T15:54:30.743Z,3.88
2023-05-10T15:58:32.327Z,13.48
2023-05-10T16:02:34.407Z,3.47
2023-05-10T16:06:37.869Z,4.47
2023-05-10T16:10:40.089Z,10.48
2023-05-10T16:14:41.784Z,4.88
2023-05-10T16:18:44.029Z,5.22
2023-05-10T16:22:46.271Z,3.60
2023-05-10T16:26:48.396Z,2.88
2023-05-10T16:30:50.384Z,4.97
2023-05-10T16:34:53.440Z,5.20
2023-05-10T16:38:55.695Z,4.57
2023-05-10T16:42:58.058Z,4.15
2023-05-10T16:47:00.257Z,5.03
2023-05-10T16:51:03.037Z,5.72
2023-05-10T16:55:05.677Z,9.52
2023-05-10T16:59:07.706Z,4.00
2023-05-10T17:03:09.816Z,4.47
2023-05-10T17:07:13.181Z,5.82
2023-05-10T17:11:15.228Z,12.73
2023-05-10T17:15:19.217Z,4.53
2023-05-10T17:19:23.028Z,2.85
2023-05-10T17:23:26.419Z,2.55
2023-05-10T17:27:30.137Z,3.75
2023-05-10T17:31:33.088Z,6.00
2023-05-10T17:35:35.229Z,4.07
2023-05-10T17:39:39.342Z,4.68
2023-05-10T17:43:42.021Z,2.67
2023-05-10T17:47:44.104Z,7.03
2023-05-10T17:51:48.112Z,6.22
2023-05-10T17:55:51.805Z,5.40
2023-05-10T17:59:53.850Z,8.40
2023-05-10T18:03:55.907Z,4.20
2023-05-10T18:07:57.881Z,6.47
2023-05-10T18:12:01.867Z,7.70
2023-05-10T18:16:05.988Z,5.57
2023-05-10T18:20:08.997Z,5.43
2023-05-10T18:24:11.139Z,7.30
2023-05-10T18:28:13.205Z,6.25
2023-05-10T18:32:14.980Z,5.70
2023-05-10T18:36:17.140Z,5.75
2023-05-10T18:40:19.621Z,6.95
2023-05-10T18:44:23.223Z,12.25
2023-05-10T18:48:25.536Z,6.72
2023-05-10T18:52:27.547Z,11.27
2023-05-10T18:56:29.638Z,10.82
2023-05-10T19:00:31.635Z,6.13
2023-05-10T19:04:33.684Z,5.53
2023-05-10T19:08:35.901Z,6.25
2023-05-10T19:12:38.048Z,8.20
2023-05-10T19:16:40.510Z,11.77
2023-05-10T19:20:46.461Z,10.50
2023-05-10T19:24:48.857Z,11.00
2023-05-10T19:28:52.383Z,6.95
2023-05-10T19:32:55.869Z,11.63
2023-05-10T19:36:58.750Z,7.57
2023-05-10T19:41:01.168Z,7.68
2023-05-10T19:45:03.428Z,12.90
2023-05-10T19:49:05.593Z,9.63
2023-05-10T19:53:07.683Z,11.98
2023-05-10T19:57:11.316Z,8.23
2023-05-10T20:01:14.110Z,10.68
2023-05-10T20:05:16.587Z,8.45
2023-05-10T20:09:18.771Z,8.52
2023-05-10T20:13:20.761Z,13.20
2023-05-10T20:17:22.851Z,14.48
2023-05-10T20:21:26.487Z,15.18
2023-05-10T20:25:28.574Z,15.25
2023-05-10T20:29:32.516Z,9.30
2023-05-10T20:33:34.513Z,12.40
2023-05-10T20:37:37.827Z,13.35
2023-05-10T20:41:39.920Z,16.20
2023-05-10T20:45:41.689Z,13.07
2023-05-10T20:49:44.068Z,20.10
2023-05-10T20:53:46.145Z,18.48
2023-05-10T20:57:48.192Z,13.18
2023-05-10T21:01:50.444Z,12.95
2023-05-10T21:05:52.660Z,12.93
2023-05-10T21:09:54.659Z,15.93
2023-05-10T21:13:57.135Z,12.13
2023-05-10T21:17:59.997Z,11.90
2023-05-10T21:22:02.122Z,12.35
2023-05-10T21:26:04.731Z,13.20
2023-05-10T21:30:09.029Z,20.40
2023-05-10T21:34:11.129Z,12.30
2023-05-10T21:38:13.228Z,10.63
2023-05-10T21:42:15.454Z,14.73
2023-05-10T21:46:17.552Z,9.73
2023-05-10T21:50:19.902Z,11.05
2023-05-10T21:54:22.126Z,17.55
2023-05-10T21:58:24.161Z,9.98
2023-05-10T22:02:26.205Z,12.50
2023-05-10T22:06:28.450Z,14.80
2023-05-10T22:10:30.518Z,17.92
2023-05-10T22:14:32.651Z,9.55
2023-05-10T22:18:34.794Z,14.27
2023-05-10T22:22:36.883Z,11.55
2023-05-10T22:26:38.964Z,19.17
2023-05-10T22:30:42.617Z,15.63
2023-05-10T22:34:44.695Z,14.82
2023-05-10T22:38:46.719Z,12.40
2023-05-10T22:42:49.178Z,9.30
2023-05-10T22:46:51.901Z,14.23
2023-05-10T22:50:54.049Z,13.23
2023-05-10T22:54:56.960Z,13.73
2023-05-10T22:58:58.987Z,11.52
2023-05-10T23:03:01.018Z,8.57
2023-05-10T23:07:03.112Z,10.27
2023-05-10T23:11:05.160Z,12.50
2023-05-10T23:15:07.503Z,9.18
2023-05-10T23:19:09.637Z,12.82
2023-05-10T23:23:11.606Z,13.90
2023-05-10T23:27:14.563Z,12.85
2023-05-10T23:31:16.843Z,13.25
2023-05-10T23:35:18.850Z,9.80
2023-05-10T23:39:20.873Z,9.23
2023-05-10T23:43:23.063Z,8.23
2023-05-10T23:47:25.043Z,6.95
2023-05-10T23:51:28.135Z,11.25
2023-05-10T23:55:30.210Z,6.20
2023-05-10T23:59:32.225Z,8.27
